Latest Weather Observations for Clermont Airport

IDQ60801

Issued at 5:05 pm EST Friday 31 October 2014 (issued every 30 minutes, with the page automatically refreshed every 10 minutes)

About weather observations | Map of weather stations | Latest weather observations for QLD | Other Formats
Station Details ID: 035124 Name: CLERMONT AIRPORT Lat: -22.78 Lon: 147.62 Height: 270.27 m
Data from the previous 72 hours. | See also: Recent months at Clermont Airport
Date/Time
EST
Temp
°C
App
Temp
°C
Dew
Point
Rel
Hum
%
Delta-T
°C
Wind Press
QNH
hPa
Press
MSL
hPa
Rain
since 9 am
mm
Dir
 
Spd
km/h
Gust
km/h
Spd
kts
Gust
kts
31/05:00pm 34.0 31.9 9.9 23 14.0 N 11 17 6 9 1010.6 1009.2 0.0
31/04:30pm 34.0 31.6 9.9 23 14.0 N 13 24 7 13 1010.6 1009.2 0.0
31/04:00pm 34.2 32.4 10.7 24 13.9 NNE 11 20 6 11 1010.6 1009.2 0.0
31/03:30pm 34.2 31.8 10.1 23 14.1 NE 13 19 7 10 1010.9 1009.5 0.0
31/03:00pm 34.4 30.5 9.6 22 14.4 NNE 20 28 11 15 1011.1 1009.7 0.0
31/02:30pm 33.7 30.6 11.5 26 13.2 N 19 32 10 17 1011.3 1009.9 0.0
31/02:00pm 33.7 30.9 11.5 26 13.2 NE 17 24 9 13 1011.7 1010.3 0.0
31/01:30pm 32.6 30.2 13.8 32 11.5 N 19 33 10 18 1012.4 1011.0 0.0
31/01:00pm 32.7 31.8 14.8 34 11.1 N 13 32 7 17 1012.8 1011.4 0.0
31/12:30pm 31.9 31.4 15.0 36 10.5 N 11 22 6 12 1013.5 1012.2 0.0
31/12:00pm 30.4 28.2 13.2 35 10.4 N 17 30 9 16 1014.0 1012.7 0.0
31/11:30am 30.3 29.0 14.8 39 9.6 NNE 15 22 8 12 1014.5 1013.1 0.0
31/11:00am 29.6 30.4 16.4 45 8.3 NNE 7 15 4 8 1014.9 1013.5 0.0
31/10:30am 28.2 28.0 15.8 47 7.7 NNE 11 19 6 10 1015.3 1013.9 0.0
31/10:00am 27.4 27.7 16.1 50 7.0 N 9 20 5 11 1015.7 1014.3 0.0
31/09:30am 26.1 25.3 16.1 54 6.2 N 15 24 8 13 1016.1 1014.7 0.0
31/09:00am 25.7 25.8 17.4 60 5.2 N 13 20 7 11 1016.2 1014.8 13.0
31/08:30am 24.8 25.9 17.0 62 4.9 N 7 15 4 8 1016.5 1015.1 13.0
31/08:00am 23.6 24.3 17.1 67 4.1 NNE 9 15 5 8 1016.6 1015.3 13.0
31/07:30am 22.3 22.9 16.8 71 3.4 NE 9 15 5 8 1016.5 1015.1 13.0
31/07:00am 21.2 22.5 17.0 77 2.6 NNE 6 11 3 6 1016.3 1014.9 13.0
31/06:30am 20.0 21.0 16.8 82 2.0 NNE 7 11 4 6 1015.7 1014.3 13.0
31/06:00am 18.9 20.6 16.1 84 1.7 NE 2 4 1 2 1015.4 1014.0 13.0
31/05:30am 18.6 19.9 16.2 86 1.4 ENE 4 7 2 4 1015.3 1013.9 13.0
31/05:00am 19.2 21.3 16.2 83 1.8 CALM 0 0 0 0 1015.0 1013.6 13.0
31/04:30am 19.8 21.7 16.6 82 2.0 ESE 2 4 1 2 1014.9 1013.5 13.0
31/04:00am 20.2 21.4 16.8 81 2.1 ESE 6 7 3 4 1014.7 1013.3 13.0
31/03:30am 20.5 21.1 16.7 79 2.3 SE 9 13 5 7 1014.5 1013.1 13.0
31/03:00am 21.1 21.9 16.3 74 2.9 SE 7 11 4 6 1014.3 1012.9 13.0
31/02:30am 21.0 20.9 16.0 73 3.0 S 11 15 6 8 1014.3 1012.9 13.0
31/02:00am 21.1 22.2 16.5 75 2.8 NNE 6 9 3 5 1013.0 1011.6 13.0
31/01:30am 21.1 22.2 16.5 75 2.8 N 6 6 3 3 1013.1 1011.7 13.0
31/01:00am 22.3 22.6 16.1 68 3.8 NE 9 17 5 9 1013.1 1011.7 13.0
31/12:30am 22.9 22.9 16.2 66 4.1 NNE 11 17 6 9 1013.1 1011.7 13.0
31/12:00am 23.1 23.6 16.6 67 4.0 NNE 9 15 5 8 1013.3 1012.0 13.0
 
Date/Time
EST
Temp
°C
App
Temp
°C
Dew
Point
Rel
Hum
%
Delta-T
°C
Wind Press
QNH
hPa
Press
MSL
hPa
Rain
since 9 am
mm
Dir
 
Spd
km/h
Gust
km/h
Spd
kts
Gust
kts
30/11:30pm 23.8 24.2 16.3 63 4.6 NNE 9 15 5 8 1013.2 1011.8 13.0
30/11:00pm 24.5 25.2 16.2 60 5.1 NNE 7 17 4 9 1013.4 1012.1 13.0
30/10:30pm 25.3 24.3 15.6 55 5.9 NNE 15 20 8 11 1013.2 1011.8 13.0
30/10:00pm 26.1 26.3 15.8 53 6.4 NNE 9 15 5 8 1013.6 1012.3 13.0
30/09:30pm 26.5 27.5 16.4 53 6.3 NNE 6 11 3 6 1013.7 1012.4 13.0
30/09:00pm 27.4 26.2 16.1 50 7.0 N 17 22 9 12 1013.1 1011.7 13.0
30/08:30pm 27.8 27.0 16.1 49 7.3 NNE 15 22 8 12 1012.5 1011.1 13.0
30/08:00pm 28.8 27.3 16.4 47 7.8 NNE 19 30 10 16 1012.0 1010.6 13.0
30/07:30pm 29.9 29.2 16.3 43 8.6 NNE 15 24 8 13 1011.7 1010.3 13.0
30/07:00pm 27.5 28.8 18.5 58 5.8 N 9 17 5 9 1011.3 1009.9 13.0
30/06:30pm 27.9 30.6 19.4 60 5.6 NNW 4 7 2 4 1010.6 1009.2 13.0
30/06:00pm 31.1 31.8 13.4 34 10.7 E 2 4 1 2 1010.1 1008.8 13.0
30/05:30pm 32.4 33.7 14.1 33 11.3 CALM 0 4 0 2 1009.9 1008.5 13.0
30/05:00pm 32.2 32.4 14.3 33 11.1 N 6 9 3 5 1009.8 1008.4 12.8
30/04:30pm 30.5 32.1 19.2 51 7.4 N 9 13 5 7 1010.1 1008.8 12.8
30/04:00pm 29.9 31.7 19.6 54 6.8 N 9 17 5 9 1010.3 1008.9 12.8
30/03:30pm 25.3 22.6 16.7 59 5.4 NNW 26 33 14 18 1010.5 1009.1 12.8
30/03:15pm 22.9 19.9 16.7 68 3.8 WNW 28 48 15 26 1010.6 1009.2 5.2
30/03:13pm 23.4 20.6 17.2 68 3.9 WNW 28 37 15 20 1010.8 1009.4 3.4
30/03:00pm 28.6 25.6 13.7 40 9.0 WNW 22 39 12 21 1010.6 1009.2 0.0
30/02:57pm 29.5 26.9 13.3 37 9.7 WNW 19 33 10 18 1010.5 1009.1 0.0
30/02:30pm 34.7 33.0 11.2 24 14.0 E 11 26 6 14 1009.9 1008.5 0.0
30/02:00pm 35.3 33.4 11.7 24 14.2 E 13 24 7 13 1009.9 1008.5 0.0
30/01:30pm 36.6 34.6 11.4 22 15.1 E 13 26 7 14 1010.7 1009.3 0.0
30/01:00pm 35.7 34.0 12.6 25 14.1 ESE 13 22 7 12 1011.3 1009.9 0.0
30/12:30pm 35.4 34.0 13.5 26 13.5 SE 13 20 7 11 1012.0 1010.6 0.0
30/12:00pm 34.1 33.0 13.0 28 12.9 ESE 11 24 6 13 1012.5 1011.1 0.0
30/11:30am 33.9 33.4 13.9 30 12.3 ESE 9 19 5 10 1013.1 1011.7 0.0
30/11:00am 33.1 31.6 13.2 30 12.1 ESE 13 22 7 12 1013.5 1012.2 0.0
30/10:30am 33.0 32.6 13.1 30 12.1 SE 7 20 4 11 1013.8 1012.5 0.0
30/10:00am 32.1 31.7 12.3 29 11.8 SE 6 13 3 7 1014.3 1012.9 0.0
30/09:30am 30.9 29.9 12.3 32 11.1 ESE 9 13 5 7 1014.5 1013.1 0.0
30/09:00am 29.9 28.8 13.2 36 10.0 SE 11 15 6 8 1014.7 1013.3 0.0
30/08:30am 30.3 29.9 13.1 34 10.3 ENE 7 13 4 7 1014.6 1013.2 0.0
30/08:00am 28.9 27.5 12.3 36 9.8 N 11 17 6 9 1014.2 1012.8 0.0
30/07:30am 25.4 24.7 14.2 50 6.7 N 11 19 6 10 1014.3 1012.9 0.0
30/07:00am 25.3 23.2 13.5 48 7.0 N 17 24 9 13 1014.2 1012.8 0.0
30/06:30am 24.7 22.8 13.0 48 6.9 N 15 26 8 14 1014.0 1012.7 0.0
30/06:00am 23.8 20.6 13.1 51 6.3 N 22 32 12 17 1013.5 1012.2 0.0
30/05:30am 22.7 19.8 12.9 54 5.7 N 20 28 11 15 1013.6 1012.3 0.0
30/05:00am 22.8 21.3 13.0 54 5.7 NNE 13 20 7 11 1013.5 1012.2 0.0
30/04:30am 23.9 22.5 12.2 48 6.7 E 11 20 6 11 1013.5 1012.2 0.0
30/04:00am 25.2 23.4 11.0 41 8.1 SSE 11 19 6 10 1014.2 1012.8 0.0
30/03:30am 25.5 23.0 10.9 40 8.3 S 15 28 8 15 1014.2 1012.8 0.0
30/03:00am 23.5 20.5 13.7 54 5.8 S 22 33 12 18 1014.2 1012.8 0.0
30/02:30am 22.0 19.4 15.8 68 3.8 SSW 24 35 13 19 1014.8 1013.4 0.0
30/02:00am 22.4 20.5 15.7 66 4.1 S 20 33 11 18 1015.1 1013.7 0.0
30/01:30am 22.4 18.8 16.2 68 3.8 SSW 30 46 16 25 1014.6 1013.2 0.0
30/01:00am 23.1 20.4 15.7 63 4.5 SSW 24 43 13 23 1014.4 1013.0 0.0
30/12:30am 25.8 21.4 14.0 48 7.1 SW 30 54 16 29 1013.9 1012.6 0.0
30/12:19am 28.1 21.7 12.0 36 9.4 SW 37 56 20 30 1013.0 1011.6 0.0
30/12:00am 27.6 27.5 12.0 38 9.1 NE 4 6 2 3 1011.7 1010.3 0.0
 
Date/Time
EST
Temp
°C
App
Temp
°C
Dew
Point
Rel
Hum
%
Delta-T
°C
Wind Press
QNH
hPa
Press
MSL
hPa
Rain
since 9 am
mm
Dir
 
Spd
km/h
Gust
km/h
Spd
kts
Gust
kts
29/11:30pm 28.1 27.6 12.0 36 9.4 NNE 6 11 3 6 1012.1 1010.7 0.0
29/11:00pm 29.1 25.7 11.2 33 10.4 NNE 20 32 11 17 1011.9 1010.5 0.0
29/10:30pm 29.1 27.9 11.6 33 10.2 N 9 15 5 8 1012.7 1011.3 0.0
29/10:00pm 28.3 28.2 12.2 37 9.5 ENE 4 6 2 3 1012.4 1011.0 0.0
29/09:30pm 28.8 28.6 11.8 35 10.0 N 4 7 2 4 1012.2 1010.8 0.0
29/09:00pm 29.5 28.7 11.1 32 10.7 NNE 6 9 3 5 1012.1 1010.7 0.0
29/08:30pm 29.3 28.6 11.4 33 10.4 NNE 6 9 3 5 1012.0 1010.6 0.0
29/08:00pm 30.9 30.1 11.8 31 11.3 NNE 7 13 4 7 1012.0 1010.6 0.0
29/07:30pm 31.7 30.9 11.0 28 12.1 ENE 6 9 3 5 1011.7 1010.3 0.0
29/07:00pm 32.6 31.9 10.0 25 13.1 SE 4 6 2 3 1011.3 1009.9 0.0
29/06:30pm 33.6 32.6 9.0 22 14.1 SSE 4 6 2 3 1010.9 1009.5 0.0
29/06:00pm 35.1 33.7 8.8 20 15.1 SSE 6 9 3 5 1010.7 1009.3 0.0
29/05:30pm 35.6 34.5 8.4 19 15.6 SE 4 7 2 4 1010.6 1009.2 0.0
29/05:00pm 35.4 34.0 9.0 20 15.2 SSE 6 9 3 5 1010.5 1009.1 0.0
29/04:30pm 35.7 34.6 8.5 19 15.6 SSE 4 13 2 7 1010.4 1009.0 0.0
29/04:00pm 36.9 36.1 9.5 19 16.0 ENE 4 13 2 7 1010.3 1008.9 0.0
29/03:30pm 37.1 35.9 9.6 19 16.1 E 6 13 3 7 1010.5 1009.1 0.0
29/03:00pm 36.4 34.5 9.1 19 15.9 E 9 17 5 9 1010.9 1009.5 0.0
29/02:30pm 36.3 34.4 10.5 21 15.3 S 11 17 6 9 1011.2 1009.8 0.0
29/02:00pm 35.4 34.0 9.7 21 15.0 E 7 15 4 8 1011.7 1010.3 0.0
29/01:30pm 35.3 34.1 10.4 22 14.7 SE 7 13 4 7 1012.0 1010.6 0.0
29/01:00pm 35.7 35.4 12.6 25 14.1 S 6 13 3 7 1012.5 1011.1 0.0
29/12:30pm 34.2 32.4 10.7 24 13.8 SE 11 17 6 9 1013.0 1011.6 0.0
29/12:00pm 34.1 32.6 11.9 26 13.3 SE 11 19 6 10 1013.5 1012.2 0.0
29/11:30am 33.7 33.2 12.7 28 12.7 ENE 7 13 4 7 1013.9 1012.6 0.0
29/11:00am 33.3 33.2 13.4 30 12.2 ENE 6 15 3 8 1014.4 1013.0 0.0
29/10:30am 31.8 31.6 13.1 32 11.3 SE 6 13 3 7 1014.9 1013.5 0.0
29/10:00am 31.1 31.5 13.8 34 10.5 NNW 4 11 2 6 1015.4 1014.0 0.0
29/09:30am 30.0 29.2 12.9 35 10.2 ESE 9 17 5 9 1015.7 1014.3 0.0
29/09:00am 29.4 28.7 11.9 34 10.3 ENE 7 17 4 9 1015.7 1014.3 0.2
29/08:30am 28.9 28.0 11.5 34 10.1 ESE 7 13 4 7 1015.8 1014.4 0.2
29/08:00am 28.6 27.2 10.8 33 10.2 E 9 15 5 8 1015.8 1014.4 0.2
29/07:30am 28.1 27.0 9.9 32 10.3 E 6 13 3 7 1015.5 1014.1 0.2
29/07:00am 27.4 26.6 9.7 33 9.9 NE 4 9 2 5 1014.8 1013.4 0.0
29/06:30am 25.6 24.8 12.8 45 7.5 N 9 15 5 8 1014.0 1012.7 0.0
29/06:00am 23.9 24.8 14.0 54 5.9 NNW 2 4 1 2 1013.8 1012.5 0.0
29/05:30am 23.4 24.1 13.3 53 5.9 NNW 2 6 1 3 1013.3 1012.0 0.0
29/05:00am 24.7 24.6 13.3 49 6.7 NW 6 9 3 5 1013.2 1011.8 0.0
29/04:30am 25.3 24.1 12.9 46 7.3 NNW 11 13 6 7 1012.6 1011.2 0.0
29/04:00am 25.6 24.4 12.8 45 7.5 N 11 17 6 9 1012.1 1010.7 0.0
29/03:30am 26.0 24.5 13.2 45 7.6 N 13 19 7 10 1012.0 1010.6 0.0
29/03:00am 26.3 24.8 14.1 47 7.3 N 15 20 8 11 1011.9 1010.5 0.0
29/02:30am 27.2 25.6 12.8 41 8.5 N 13 20 7 11 1012.2 1010.8 0.0
29/02:00am 27.3 26.1 12.9 41 8.5 NE 11 15 6 8 1012.0 1010.6 0.0
29/01:30am 27.1 26.6 13.8 44 8.0 N 9 13 5 7 1012.4 1011.0 0.0
29/01:00am 26.3 26.4 14.4 48 7.2 NNW 7 11 4 6 1012.8 1011.4 0.0
29/12:30am 29.6 25.8 11.2 32 10.7 W 22 35 12 19 1013.2 1011.8 0.0
29/12:00am 29.4 26.0 10.5 31 10.9 NE 19 30 10 16 1011.6 1010.2 0.0
 
Date/Time
EST
Temp
°C
App
Temp
°C
Dew
Point
Rel
Hum
%
Delta-T
°C
Wind Press
QNH
hPa
Press
MSL
hPa
Rain
since 9 am
mm
Dir
 
Spd
km/h
Gust
km/h
Spd
kts
Gust
kts
28/11:30pm 28.7 26.4 11.7 35 9.9 NE 15 32 8 17 1012.6 1011.2 0.0
28/11:00pm 29.0 26.7 11.6 34 10.2 NE 15 22 8 12 1013.1 1011.7 0.0
28/10:30pm 29.6 28.1 10.7 31 10.9 NE 9 17 5 9 1013.8 1012.5 0.0
28/10:00pm 30.2 28.6 10.2 29 11.5 E 9 19 5 10 1013.1 1011.7 0.0
28/09:30pm 30.4 28.9 9.3 27 12.0 ESE 7 15 4 8 1012.6 1011.2 0.0
28/09:00pm 31.1 29.5 8.2 24 12.8 E 6 9 3 5 1012.3 1010.9 0.0
28/08:30pm 31.7 30.5 8.0 23 13.2 S 4 7 2 4 1011.8 1010.4 0.0
28/08:00pm 32.9 30.1 8.4 22 13.9 S 13 20 7 11 1011.6 1010.2 0.0
28/07:30pm 29.3 29.1 8.9 28 11.4 CALM 0 0 0 0 1010.9 1009.5 0.0
28/07:00pm 29.4 28.3 8.5 27 11.6 N 4 6 2 3 1010.5 1009.1 0.0
28/06:30pm 31.2 30.4 8.2 24 12.8 E 2 4 1 2 1010.0 1008.7 0.0
28/06:00pm 35.5 34.2 7.6 18 15.8 SSE 4 6 2 3 1009.8 1008.4 0.0
28/05:30pm 36.8 34.7 5.9 15 17.1 S 6 9 3 5 1009.7 1008.3 0.0

Other Formats:

Comma delimited format used in spreadsheet applications
http://www.bom.gov.au/fwo/IDQ60801/IDQ60801.94395.axf

JavaScript Object Notation format (JSON) in row-major order
http://www.bom.gov.au/fwo/IDQ60801/IDQ60801.94395.json